createdAt,value
2022-11-15T00:01:15.294Z,1.40
2022-11-15T00:03:42.949Z,1.10
2022-11-15T00:06:10.779Z,1.00
2022-11-15T00:08:38.587Z,1.05
2022-11-15T00:11:06.323Z,1.48
2022-11-15T00:13:34.579Z,1.10
2022-11-15T00:16:03.199Z,1.25
2022-11-15T00:18:31.377Z,1.52
2022-11-15T00:21:06.422Z,1.23
2022-11-15T00:23:34.803Z,1.20
2022-11-15T00:26:02.615Z,1.33
2022-11-15T00:28:30.632Z,1.20
2022-11-15T00:31:03.204Z,1.35
2022-11-15T00:33:33.966Z,1.25
2022-11-15T00:36:03.847Z,1.25
2022-11-15T00:38:33.776Z,1.10
2022-11-15T00:41:06.396Z,1.10
2022-11-15T00:43:37.186Z,1.25
2022-11-15T00:46:04.996Z,1.23
2022-11-15T00:48:32.857Z,1.00
2022-11-15T00:51:00.675Z,1.10
2022-11-15T00:53:28.695Z,1.20
2022-11-15T00:55:56.656Z,1.08
2022-11-15T00:58:24.380Z,1.20
2022-11-15T01:00:52.110Z,1.30
2022-11-15T01:03:19.830Z,1.20
2022-11-15T01:05:47.592Z,1.10
2022-11-15T01:08:19.632Z,1.35
2022-11-15T01:10:47.684Z,1.23
2022-11-15T01:13:15.420Z,1.15
2022-11-15T01:15:43.596Z,1.50
2022-11-15T01:18:11.591Z,1.42
2022-11-15T01:20:46.114Z,1.13
2022-11-15T01:23:13.828Z,1.38
2022-11-15T01:25:41.561Z,1.30
2022-11-15T01:28:09.212Z,1.42
2022-11-15T01:30:37.884Z,1.45
2022-11-15T01:33:05.625Z,1.65
2022-11-15T01:35:33.406Z,1.30
2022-11-15T01:38:00.787Z,1.30
2022-11-15T01:40:28.535Z,1.40
2022-11-15T01:42:56.288Z,1.40
2022-11-15T01:45:24.140Z,1.27
2022-11-15T01:47:54.972Z,1.20
2022-11-15T01:50:29.009Z,1.10
2022-11-15T01:52:56.880Z,1.27
2022-11-15T01:55:28.094Z,1.55
2022-11-15T01:58:00.873Z,1.25
2022-11-15T02:00:29.319Z,1.45
2022-11-15T02:02:57.272Z,1.33
2022-11-15T02:05:25.158Z,1.30
2022-11-15T02:07:55.896Z,1.38
2022-11-15T02:10:25.260Z,1.67
2022-11-15T02:12:54.554Z,1.33
2022-11-15T02:15:22.657Z,1.15
2022-11-15T02:18:12.802Z,1.00
2022-11-15T02:20:53.823Z,1.25
2022-11-15T02:23:54.901Z,1.63
2022-11-15T02:26:50.095Z,1.05
2022-11-15T02:29:44.324Z,1.20
2022-11-15T02:32:31.764Z,1.42
2022-11-15T02:35:13.272Z,1.45
2022-11-15T02:38:01.115Z,1.30
2022-11-15T02:40:42.924Z,1.45
2022-11-15T02:43:28.698Z,1.25
2022-11-15T02:46:04.318Z,1.60
2022-11-15T02:48:35.590Z,2.20
2022-11-15T02:51:03.588Z,1.65
2022-11-15T02:53:31.615Z,1.58
2022-11-15T02:55:59.688Z,1.23
2022-11-15T02:58:50.052Z,1.30
2022-11-15T03:01:37.333Z,1.40
2022-11-15T03:04:25.359Z,1.25
2022-11-15T03:07:18.904Z,1.35
2022-11-15T03:12:43.019Z,1.10
2022-11-15T03:15:20.139Z,1.30
2022-11-15T03:17:55.919Z,1.35
2022-11-15T03:20:26.328Z,1.08
2022-11-15T03:22:57.139Z,2.10
2022-11-15T03:25:28.132Z,1.20
2022-11-15T03:28:00.252Z,1.05
2022-11-15T03:30:28.541Z,1.33
2022-11-15T03:32:59.026Z,1.15
2022-11-15T03:35:30.575Z,1.45
2022-11-15T03:38:20.889Z,1.35
2022-11-15T03:41:01.702Z,1.35
2022-11-15T03:43:42.421Z,1.30
2022-11-15T03:46:17.519Z,1.30
2022-11-15T03:48:50.732Z,1.60
2022-11-15T03:51:18.630Z,1.45
2022-11-15T03:53:47.209Z,1.50
2022-11-15T03:56:15.081Z,1.23
2022-11-15T03:58:43.168Z,1.10
2022-11-15T04:01:11.542Z,1.48
2022-11-15T04:03:39.466Z,1.30
2022-11-15T04:06:07.749Z,1.50
2022-11-15T04:08:35.441Z,1.42
2022-11-15T04:11:03.470Z,1.55
2022-11-15T04:13:31.813Z,1.60
2022-11-15T04:15:59.848Z,1.40
2022-11-15T04:18:27.768Z,1.60
2022-11-15T04:21:10.992Z,1.20
2022-11-15T04:26:24.219Z,1.20
2022-11-15T04:29:11.783Z,1.40
2022-11-15T04:31:39.366Z,1.15
2022-11-15T04:34:07.023Z,1.23
2022-11-15T04:36:50.309Z,1.75
2022-11-15T04:41:45.371Z,1.50
2022-11-15T04:44:13.221Z,1.35
2022-11-15T04:46:41.100Z,1.38
2022-11-15T04:49:08.924Z,1.77
2022-11-15T04:51:36.743Z,1.23
2022-11-15T04:54:04.901Z,1.40
2022-11-15T04:56:32.699Z,1.60
2022-11-15T04:59:00.348Z,1.77
2022-11-15T05:01:28.417Z,1.40
2022-11-15T05:04:11.563Z,2.10
2022-11-15T05:09:06.560Z,1.80
2022-11-15T05:11:34.563Z,1.63
2022-11-15T05:14:02.584Z,1.75
2022-11-15T05:16:30.485Z,1.30
2022-11-15T05:18:58.218Z,1.35
2022-11-15T05:21:26.017Z,2.17
2022-11-15T05:23:53.730Z,1.48
2022-11-15T05:26:21.564Z,1.73
2022-11-15T05:28:55.340Z,1.67
2022-11-15T05:31:23.219Z,1.50
2022-11-15T05:33:52.823Z,1.60
2022-11-15T05:36:32.564Z,1.80
2022-11-15T05:39:00.477Z,1.70
2022-11-15T05:41:34.630Z,1.52
2022-11-15T05:44:04.023Z,1.98
2022-11-15T05:46:31.943Z,2.30
2022-11-15T05:49:00.050Z,1.70
2022-11-15T05:51:30.435Z,1.75
2022-11-15T05:54:00.055Z,2.00
2022-11-15T05:56:28.185Z,1.45
2022-11-15T05:58:59.706Z,1.60
2022-11-15T06:01:28.756Z,1.77
2022-11-15T06:03:57.140Z,1.65
2022-11-15T06:06:25.440Z,1.60
2022-11-15T06:08:54.128Z,1.70
2022-11-15T06:11:22.285Z,1.60
2022-11-15T06:13:50.743Z,1.88
2022-11-15T06:16:20.549Z,1.90
2022-11-15T06:18:48.976Z,2.00
2022-11-15T06:21:18.696Z,1.50
2022-11-15T06:23:48.418Z,1.50
2022-11-15T06:26:16.568Z,1.85
2022-11-15T06:28:44.284Z,2.13
2022-11-15T06:31:15.442Z,2.05
2022-11-15T06:33:43.383Z,1.90
2022-11-15T06:36:18.088Z,2.05
2022-11-15T06:38:46.712Z,1.92
2022-11-15T06:41:16.401Z,3.53
2022-11-15T06:43:44.993Z,1.92
2022-11-15T06:46:15.566Z,2.10
2022-11-15T06:48:43.355Z,1.90
2022-11-15T06:51:11.154Z,2.05
2022-11-15T06:53:39.020Z,2.33
2022-11-15T06:56:08.461Z,2.30
2022-11-15T06:58:36.521Z,1.80
2022-11-15T07:01:13.261Z,1.73
2022-11-15T07:03:42.583Z,3.30
2022-11-15T07:06:11.388Z,2.22
2022-11-15T07:08:39.487Z,1.80
2022-11-15T07:11:08.569Z,2.10
2022-11-15T07:13:38.379Z,2.17
2022-11-15T07:16:08.006Z,1.65
2022-11-15T07:18:37.177Z,3.40
2022-11-15T07:21:06.853Z,1.63
2022-11-15T07:23:34.905Z,2.00
2022-11-15T07:26:02.847Z,1.90
2022-11-15T07:28:30.835Z,2.35
2022-11-15T07:30:58.826Z,2.10
2022-11-15T07:33:26.604Z,2.05
2022-11-15T07:35:54.522Z,1.70
2022-11-15T07:38:22.284Z,1.70
2022-11-15T07:40:58.762Z,1.58
2022-11-15T07:43:29.220Z,1.80
2022-11-15T07:45:59.400Z,1.70
2022-11-15T07:48:42.347Z,2.10
2022-11-15T07:51:14.750Z,1.70
2022-11-15T07:53:45.500Z,2.05
2022-11-15T07:56:13.615Z,2.22
2022-11-15T07:58:41.165Z,1.83
2022-11-15T08:01:10.863Z,2.10
2022-11-15T08:03:39.042Z,2.35
2022-11-15T08:06:06.954Z,1.88
2022-11-15T08:08:34.719Z,1.70
2022-11-15T08:11:02.587Z,3.58
2022-11-15T08:13:30.672Z,1.90
2022-11-15T08:16:00.772Z,2.13
2022-11-15T08:18:28.721Z,2.30
2022-11-15T08:21:01.422Z,2.05
2022-11-15T08:23:29.545Z,2.05
2022-11-15T08:26:02.345Z,2.00
2022-11-15T08:28:30.426Z,2.28
2022-11-15T08:30:58.161Z,2.03
2022-11-15T08:33:25.984Z,2.05
2022-11-15T08:35:53.692Z,2.40
2022-11-15T08:38:21.460Z,2.15
2022-11-15T08:40:49.274Z,1.70
2022-11-15T08:43:16.932Z,2.78
2022-11-15T08:45:44.837Z,2.92
2022-11-15T08:48:12.706Z,2.78
2022-11-15T08:50:40.649Z,2.05
2022-11-15T08:53:09.691Z,1.67
2022-11-15T08:55:40.157Z,1.80
2022-11-15T08:58:08.296Z,2.00
2022-11-15T09:00:35.984Z,2.00
2022-11-15T09:03:06.456Z,2.33
2022-11-15T09:05:34.563Z,2.20
2022-11-15T09:08:13.861Z,1.92
2022-11-15T09:10:50.232Z,8.32
2022-11-15T09:13:18.146Z,2.55
2022-11-15T09:15:45.863Z,2.10
2022-11-15T09:18:13.659Z,1.63
2022-11-15T09:20:41.826Z,1.98
2022-11-15T09:23:09.807Z,1.75
2022-11-15T09:25:37.504Z,2.20
2022-11-15T09:28:08.691Z,2.03
2022-11-15T09:30:37.796Z,2.00
2022-11-15T09:33:10.136Z,2.00
2022-11-15T09:35:37.895Z,1.90
2022-11-15T09:38:05.793Z,2.20
2022-11-15T09:40:36.973Z,1.55
2022-11-15T09:43:25.300Z,2.33
2022-11-15T09:46:07.769Z,2.40
2022-11-15T09:48:57.241Z,2.25
2022-11-15T09:51:35.902Z,2.40
2022-11-15T09:54:51.798Z,2.22
2022-11-15T09:57:17.361Z,2.28
2022-11-15T10:00:38.701Z,1.95
2022-11-15T10:03:14.703Z,1.80
2022-11-15T10:05:47.383Z,1.80
2022-11-15T10:08:45.509Z,1.92
2022-11-15T10:14:15.064Z,1.88
2022-11-15T10:17:10.988Z,2.13
2022-11-15T10:20:05.038Z,3.05
2022-11-15T10:22:45.686Z,2.10
2022-11-15T10:25:19.716Z,1.90
2022-11-15T10:28:07.808Z,2.10
2022-11-15T10:30:41.955Z,2.20
2022-11-15T10:33:28.301Z,2.50
2022-11-15T10:36:17.245Z,2.25
2022-11-15T10:38:56.522Z,2.30
2022-11-15T10:41:37.173Z,2.22
2022-11-15T10:44:22.999Z,2.75
2022-11-15T10:47:07.934Z,1.92
2022-11-15T10:49:36.920Z,2.20
2022-11-15T10:52:20.601Z,2.28
2022-11-15T10:54:54.519Z,2.05
2022-11-15T10:57:26.476Z,2.00
2022-11-15T10:59:57.955Z,2.17
2022-11-15T11:02:33.875Z,1.92
2022-11-15T11:05:02.087Z,1.95
2022-11-15T11:07:33.817Z,2.08
2022-11-15T11:10:22.871Z,2.80
2022-11-15T11:12:55.106Z,2.50
2022-11-15T11:15:29.356Z,2.80
2022-11-15T11:18:16.639Z,2.80
2022-11-15T11:20:51.803Z,2.78
2022-11-15T11:23:52.618Z,2.40
2022-11-15T11:26:40.497Z,3.00
2022-11-15T11:29:38.882Z,2.85
2022-11-15T11:32:35.795Z,2.58
2022-11-15T11:35:16.310Z,2.80
2022-11-15T11:37:54.346Z,2.90
2022-11-15T11:40:38.304Z,2.90
2022-11-15T11:43:30.149Z,8.68
2022-11-15T11:46:28.361Z,3.97
2022-11-15T11:49:09.425Z,3.10
2022-11-15T11:52:02.463Z,3.70
2022-11-15T11:54:50.679Z,2.78
2022-11-15T11:57:34.746Z,4.00
2022-11-15T12:00:15.750Z,3.05
2022-11-15T12:02:51.715Z,6.80
2022-11-15T12:05:32.326Z,3.70
2022-11-15T12:08:21.632Z,3.28
2022-11-15T12:11:08.294Z,5.40
2022-11-15T12:13:37.875Z,4.35
2022-11-15T12:16:25.224Z,3.60
2022-11-15T12:18:56.022Z,5.32
2022-11-15T12:21:44.985Z,3.45
2022-11-15T12:24:20.975Z,3.38
2022-11-15T12:27:12.858Z,2.88
2022-11-15T12:29:49.035Z,3.83
2022-11-15T12:32:38.142Z,2.40
2022-11-15T12:35:22.667Z,3.45
2022-11-15T12:37:52.405Z,3.20
2022-11-15T12:40:25.551Z,5.72
2022-11-15T12:43:04.559Z,3.10
2022-11-15T12:45:37.843Z,3.40
2022-11-15T12:48:40.758Z,4.00
2022-11-15T12:51:08.590Z,5.88
2022-11-15T12:53:37.053Z,4.70
2022-11-15T12:56:21.936Z,3.58
2022-11-15T12:58:53.350Z,3.22
2022-11-15T13:01:55.265Z,3.35
2022-11-15T13:04:27.453Z,3.20
2022-11-15T13:07:02.085Z,4.20
2022-11-15T13:09:52.396Z,3.33
2022-11-15T13:12:57.383Z,3.00
2022-11-15T13:15:58.428Z,3.53
2022-11-15T13:18:38.194Z,3.65
2022-11-15T13:21:35.108Z,3.85
2022-11-15T13:24:03.067Z,3.70
2022-11-15T13:26:30.924Z,4.15
2022-11-15T13:29:00.086Z,3.92
2022-11-15T13:31:35.698Z,3.97
2022-11-15T13:34:44.206Z,4.05
2022-11-15T13:37:31.059Z,4.00
2022-11-15T13:40:18.924Z,3.75
2022-11-15T13:42:46.708Z,3.58
2022-11-15T13:45:17.653Z,3.70
2022-11-15T13:47:45.653Z,3.55
2022-11-15T13:50:15.007Z,3.60
2022-11-15T13:52:47.731Z,3.10
2022-11-15T13:55:20.031Z,2.78
2022-11-15T13:57:52.539Z,3.40
2022-11-15T14:00:33.948Z,3.28
2022-11-15T14:03:19.352Z,3.13
2022-11-15T14:06:13.268Z,2.95
2022-11-15T14:08:43.339Z,2.90
2022-11-15T14:11:16.412Z,3.25
2022-11-15T14:16:38.485Z,2.93
2022-11-15T14:19:09.071Z,3.22
2022-11-15T14:21:38.928Z,3.70
2022-11-15T14:24:26.013Z,3.50
2022-11-15T14:26:56.713Z,3.40
2022-11-15T14:29:32.521Z,3.65
2022-11-15T14:32:17.448Z,3.80
2022-11-15T14:34:48.805Z,3.75
2022-11-15T14:37:28.799Z,3.63
2022-11-15T14:39:58.757Z,3.28
2022-11-15T14:42:28.121Z,3.60
2022-11-15T14:44:58.213Z,3.72
2022-11-15T14:47:29.053Z,3.70
2022-11-15T14:49:58.003Z,4.20
2022-11-15T14:52:32.969Z,5.20
2022-11-15T14:55:05.297Z,5.68
2022-11-15T14:57:34.839Z,5.65
2022-11-15T15:00:05.554Z,6.72
2022-11-15T15:02:34.568Z,6.25
2022-11-15T15:05:12.577Z,6.10
2022-11-15T15:07:40.908Z,4.88
2022-11-15T15:10:38.508Z,4.90
2022-11-15T15:13:01.022Z,4.68
2022-11-15T15:15:36.351Z,4.80
2022-11-15T15:18:06.632Z,5.38
2022-11-15T15:20:36.562Z,5.32
2022-11-15T15:23:06.714Z,4.32
2022-11-15T15:25:37.896Z,4.47
2022-11-15T15:28:06.755Z,4.15
2022-11-15T15:30:34.590Z,3.85
2022-11-15T15:33:02.518Z,4.25
2022-11-15T15:35:33.607Z,3.70
2022-11-15T15:38:01.579Z,3.85
2022-11-15T15:40:31.935Z,3.60
2022-11-15T15:43:00.018Z,4.00
2022-11-15T15:45:28.980Z,3.58
2022-11-15T15:47:57.074Z,4.00
2022-11-15T15:50:27.950Z,4.00
2022-11-15T15:52:57.658Z,3.95
2022-11-15T15:55:25.841Z,4.20
2022-11-15T15:57:53.714Z,4.18
2022-11-15T16:00:22.450Z,3.90
2022-11-15T16:02:50.186Z,3.72
2022-11-15T16:05:18.740Z,3.70
2022-11-15T16:07:47.627Z,3.90
2022-11-15T16:10:25.072Z,4.40
2022-11-15T16:12:57.305Z,4.00
2022-11-15T16:15:32.387Z,3.83
2022-11-15T16:18:03.348Z,3.63
2022-11-15T16:20:45.422Z,3.17
2022-11-15T16:23:16.301Z,3.67
2022-11-15T16:25:51.137Z,3.35
2022-11-15T16:28:25.992Z,3.88
2022-11-15T16:31:15.641Z,4.28
2022-11-15T16:33:44.183Z,4.10
2022-11-15T16:36:29.492Z,3.83
2022-11-15T16:38:58.690Z,3.83
2022-11-15T16:41:27.195Z,3.97
2022-11-15T16:43:54.757Z,4.07
2022-11-15T16:46:25.502Z,3.63
2022-11-15T16:48:54.598Z,3.70
2022-11-15T16:51:23.680Z,4.00
2022-11-15T16:53:51.743Z,3.55
2022-11-15T16:56:26.171Z,3.97
2022-11-15T16:58:58.855Z,3.92
2022-11-15T17:01:29.867Z,3.95
2022-11-15T17:03:58.169Z,4.10
2022-11-15T17:06:27.292Z,4.28
2022-11-15T17:08:56.968Z,4.68
2022-11-15T17:11:26.549Z,4.45
2022-11-15T17:13:59.871Z,4.35
2022-11-15T17:16:28.827Z,4.53
2022-11-15T17:18:56.860Z,4.30
2022-11-15T17:21:31.125Z,4.82
2022-11-15T17:24:01.204Z,4.78
2022-11-15T17:26:34.021Z,4.60
2022-11-15T17:29:07.859Z,4.25
2022-11-15T17:31:37.272Z,4.45
2022-11-15T17:34:09.204Z,4.72
2022-11-15T17:36:37.117Z,5.17
2022-11-15T17:39:08.468Z,5.20
2022-11-15T17:41:37.461Z,5.53
2022-11-15T17:44:05.398Z,5.53
2022-11-15T17:46:34.458Z,5.55
2022-11-15T17:49:02.419Z,6.70
2022-11-15T17:51:30.608Z,6.05
2022-11-15T17:53:59.286Z,6.13
2022-11-15T17:56:28.791Z,5.60
2022-11-15T17:58:58.680Z,6.05
2022-11-15T18:01:29.402Z,6.55
2022-11-15T18:04:00.860Z,5.57
2022-11-15T18:06:31.767Z,6.95
2022-11-15T18:09:00.379Z,6.45
2022-11-15T18:11:35.346Z,6.88
2022-11-15T18:14:05.172Z,7.07
2022-11-15T18:16:35.938Z,6.75
2022-11-15T18:19:10.224Z,7.00
2022-11-15T18:21:56.887Z,6.80
2022-11-15T18:24:29.657Z,7.07
2022-11-15T18:26:58.895Z,7.10
2022-11-15T18:29:30.181Z,6.75
2022-11-15T18:32:01.421Z,6.28
2022-11-15T18:34:32.702Z,6.30
2022-11-15T18:37:03.947Z,5.50
2022-11-15T18:39:33.369Z,5.80
2022-11-15T18:42:04.941Z,6.07
2022-11-15T18:44:33.443Z,5.40
2022-11-15T18:47:01.412Z,5.63
2022-11-15T18:49:29.512Z,5.72
2022-11-15T18:51:58.153Z,5.57
2022-11-15T18:54:30.982Z,5.10
2022-11-15T18:56:59.579Z,6.13
2022-11-15T18:59:28.105Z,5.70
2022-11-15T19:01:57.062Z,5.38
2022-11-15T19:04:25.100Z,5.70
2022-11-15T19:06:53.912Z,5.55
2022-11-15T19:09:21.958Z,5.22
2022-11-15T19:11:51.843Z,5.10
2022-11-15T19:14:24.399Z,5.50
2022-11-15T19:16:52.760Z,5.07
2022-11-15T19:19:24.689Z,5.65
2022-11-15T19:21:53.176Z,5.72
2022-11-15T19:24:21.319Z,6.15
2022-11-15T19:26:49.639Z,5.78
2022-11-15T19:29:18.901Z,4.80
2022-11-15T19:31:49.018Z,5.57
2022-11-15T19:34:18.111Z,5.38
2022-11-15T19:36:46.536Z,5.68
2022-11-15T19:39:15.526Z,5.38
2022-11-15T19:41:44.424Z,5.28
2022-11-15T19:44:13.006Z,5.70
2022-11-15T19:46:41.464Z,5.72
2022-11-15T19:49:11.427Z,5.75
2022-11-15T19:51:39.830Z,5.47
2022-11-15T19:54:09.105Z,6.20
2022-11-15T19:56:37.643Z,5.90
2022-11-15T19:59:06.034Z,6.55
2022-11-15T20:01:39.038Z,6.88
2022-11-15T20:04:08.421Z,8.55
2022-11-15T20:06:40.404Z,7.20
2022-11-15T20:09:11.592Z,7.85
2022-11-15T20:11:39.539Z,8.45
2022-11-15T20:14:09.659Z,9.50
2022-11-15T20:16:37.860Z,10.50
2022-11-15T20:19:05.839Z,12.55
2022-11-15T20:21:33.787Z,13.00
2022-11-15T20:24:01.579Z,13.73
2022-11-15T20:26:32.250Z,14.05
2022-11-15T20:29:02.296Z,14.73
2022-11-15T20:31:31.038Z,15.43
2022-11-15T20:33:59.590Z,16.50
2022-11-15T20:36:27.955Z,16.48
2022-11-15T20:39:00.069Z,16.88
2022-11-15T20:41:28.543Z,18.83
2022-11-15T20:43:57.885Z,17.77
2022-11-15T20:46:27.252Z,16.92
2022-11-15T20:48:55.801Z,18.20
2022-11-15T20:51:23.966Z,19.40
2022-11-15T20:53:51.769Z,18.45
2022-11-15T20:56:21.909Z,17.55
2022-11-15T20:58:50.852Z,16.83
2022-11-15T21:01:25.154Z,16.40
2022-11-15T21:03:54.586Z,16.83
2022-11-15T21:06:23.667Z,16.90
2022-11-15T21:09:07.105Z,15.93
2022-11-15T21:11:50.428Z,16.88
2022-11-15T21:14:18.599Z,16.00
2022-11-15T21:16:46.565Z,16.70
2022-11-15T21:19:14.341Z,15.73
2022-11-15T21:21:42.810Z,16.08
2022-11-15T21:24:12.070Z,14.60
2022-11-15T21:26:40.330Z,15.38
2022-11-15T21:29:11.335Z,13.43
2022-11-15T21:31:39.591Z,14.63
2022-11-15T21:34:07.482Z,13.98
2022-11-15T21:36:35.458Z,13.23
2022-11-15T21:39:06.581Z,14.60
2022-11-15T21:41:34.524Z,13.70
2022-11-15T21:44:03.217Z,12.68
2022-11-15T21:46:32.004Z,12.75
2022-11-15T21:48:59.812Z,11.40
2022-11-15T21:51:27.676Z,10.65
2022-11-15T21:53:56.516Z,11.27
2022-11-15T21:56:25.914Z,10.90
2022-11-15T21:58:54.525Z,9.38
2022-11-15T22:01:39.626Z,9.85
2022-11-15T22:04:07.845Z,9.88
2022-11-15T22:06:36.216Z,9.13
2022-11-15T22:09:05.258Z,9.32
2022-11-15T22:11:33.306Z,8.52
2022-11-15T22:14:01.357Z,9.27
2022-11-15T22:16:29.413Z,8.68
2022-11-15T22:18:57.614Z,9.10
2022-11-15T22:21:25.543Z,10.00
2022-11-15T22:23:53.448Z,8.35
2022-11-15T22:26:23.836Z,9.50
2022-11-15T22:28:52.254Z,9.07
2022-11-15T22:31:19.998Z,9.50
2022-11-15T22:33:47.943Z,8.70
2022-11-15T22:36:15.867Z,8.68
2022-11-15T22:38:43.870Z,8.32
2022-11-15T22:41:12.778Z,8.38
2022-11-15T22:43:41.168Z,8.85
2022-11-15T22:46:09.220Z,9.23
2022-11-15T22:48:38.975Z,9.10
2022-11-15T22:51:07.440Z,8.77
2022-11-15T22:53:35.309Z,9.88
2022-11-15T22:56:05.779Z,8.80
2022-11-15T22:58:34.255Z,9.82
2022-11-15T23:01:04.056Z,10.27
2022-11-15T23:03:33.500Z,10.43
2022-11-15T23:06:06.500Z,10.82
2022-11-15T23:08:34.523Z,11.15
2022-11-15T23:11:19.353Z,11.02
2022-11-15T23:13:47.619Z,10.88
2022-11-15T23:16:22.804Z,10.80
2022-11-15T23:18:54.826Z,10.32
2022-11-15T23:21:44.050Z,9.60
2022-11-15T23:24:21.717Z,9.90
2022-11-15T23:26:56.016Z,10.05
2022-11-15T23:29:29.189Z,10.32
2022-11-15T23:32:12.769Z,10.88
2022-11-15T23:34:46.725Z,10.52
2022-11-15T23:37:17.482Z,10.50
2022-11-15T23:39:49.486Z,10.65
2022-11-15T23:42:20.348Z,10.27
2022-11-15T23:44:50.743Z,10.80
2022-11-15T23:47:19.691Z,10.65
2022-11-15T23:49:47.598Z,11.20
2022-11-15T23:52:16.479Z,10.82
2022-11-15T23:54:44.454Z,9.55
2022-11-15T23:57:12.656Z,9.73
2022-11-15T23:59:43.653Z,9.82
